Latest Weather Observations for Mawson*

IDT60801

Issued at 2:35 pm EST Saturday 26 July 2014 (issued every 30 minutes, with the page automatically refreshed every 10 minutes)

About weather observations | Map of weather stations | Latest weather observations for ANT | Other Formats
Station Details ID: 300001 Name: MAWSON Lat: -67.60 Lon: 62.88 Height: 9.9 m
Data from the previous 72 hours. | See also: Recent months at Mawson*
Date/Time
EST
Temp
°C
App
Temp
°C
Dew
Point
Rel
Hum
%
Delta-T
°C
Wind Press
QNH
hPa
Press
MSL
hPa
Rain
since 9 am
mm
Dir
 
Spd
km/h
Gust
km/h
Spd
kts
Gust
kts
26/02:30pm -26.0 -31.6 -36.0 39 - NE 9 17 5 9 971.8 - -
26/02:00pm -27.1 -35.2 -37.0 39 - S 22 28 12 15 971.6 - -
26/01:30pm -27.8 -32.8 -35.2 49 - W 6 9 3 5 972.1 - -
26/01:00pm -28.1 -32.7 -34.3 55 - W 4 7 2 4 972.1 972.2 -
26/12:30pm -27.2 -32.8 -35.5 45 - W 9 13 5 7 972.3 - -
26/12:00pm -26.9 -32.1 -34.3 50 - W 7 9 4 5 972.5 - -
26/11:30am -27.3 -32.3 -34.3 51 - W 6 9 3 5 972.5 - -
26/11:00am -27.3 -32.9 -34.5 50 - SSW 9 11 5 6 973.0 - -
26/10:30am -26.5 -31.2 -34.6 46 - NE 4 9 2 5 972.8 - -
26/10:00am -26.0 -31.0 -36.0 39 - NE 6 7 3 4 972.8 972.9 -
26/09:30am -25.1 -30.1 -35.2 39 - NE 6 7 3 4 973.1 - -
26/09:00am -25.0 -30.6 -34.4 41 - SSE 9 26 5 14 973.0 - -
26/08:30am -24.3 -32.0 -35.6 34 - ESE 20 28 11 15 973.5 - -
26/08:00am -24.6 -29.8 -34.8 38 - S 7 9 4 5 973.7 - -
26/07:30am -23.9 -29.9 -34.4 37 - SE 11 24 6 13 973.7 - -
26/07:08am -24.5 -35.4 -35.5 35 - SSE 37 44 20 24 973.4 - -
26/07:03am -24.5 -34.5 -35.5 35 - S 32 39 17 21 973.8 - -
26/07:00am -24.3 -36.4 -35.9 33 - SSE 43 57 23 31 973.5 973.6 -
26/06:36am -24.0 -34.0 -35.3 35 - SSE 32 50 17 27 974.0 - -
26/06:35am -23.9 -33.1 -34.7 36 - SSE 28 43 15 23 974.1 - -
26/06:30am -25.0 -29.6 -33.7 44 - SSE 4 9 2 5 974.3 - -
26/06:00am -25.5 -30.5 -35.1 40 - W 6 11 3 6 974.5 - -
26/05:30am -24.7 -29.3 -34.1 41 - WSW 4 7 2 4 974.7 - -
26/05:00am -24.6 -29.6 -34.0 41 - WSW 6 11 3 6 975.0 - -
26/04:30am -24.5 -30.5 -33.9 41 - NE 11 15 6 8 975.4 - -
26/04:15am -24.0 -31.5 -34.0 39 - ESE 19 26 10 14 975.3 - -
26/04:00am -24.8 -37.4 -34.7 39 - SSE 46 54 25 29 975.1 975.2 -
26/03:47am -24.6 -34.8 -34.8 38 - SE 33 48 18 26 975.3 - -
26/03:30am -23.6 -31.7 -33.9 38 - ESE 22 28 12 15 975.7 - -
26/03:00am -23.8 -32.6 -34.3 37 - SSE 26 35 14 19 975.8 - -
26/02:30am -23.8 -34.7 -33.8 39 - SSE 37 48 20 26 976.2 - -
26/02:16am -24.4 -33.6 -34.1 40 - SSE 28 43 15 23 976.5 - -
26/02:00am -24.1 -29.3 -33.1 43 - ENE 7 11 4 6 976.8 - -
26/01:40am -23.4 -33.6 -34.5 35 - S 33 39 18 21 976.7 - -
26/01:30am -23.3 -27.9 -33.9 37 - SW 4 7 2 4 977.3 - -
26/01:00am -22.9 -28.9 -33.5 37 - SSW 11 15 6 8 977.4 977.5 -
26/12:30am -23.4 -30.1 -32.9 41 - SW 15 20 8 11 977.7 - -
26/12:01am -22.3 -32.3 -33.8 34 - S 32 41 17 22 977.9 - -
26/12:00am -22.5 -34.6 -34.0 34 - SSE 43 52 23 28 977.9 - -
 
Date/Time
EST
Temp
°C
App
Temp
°C
Dew
Point
Rel
Hum
%
Delta-T
°C
Wind Press
QNH
hPa
Press
MSL
hPa
Rain
since 9 am
mm
Dir
 
Spd
km/h
Gust
km/h
Spd
kts
Gust
kts
25/11:30pm -23.5 -33.5 -33.3 40 - SSE 32 41 17 22 978.1 - -
25/11:26pm -23.7 -33.7 -33.4 41 - SSE 32 41 17 22 978.2 - -
25/11:00pm -23.6 -28.6 -32.1 46 - S 6 11 3 6 978.6 - -
25/10:30pm -24.7 -29.3 -31.3 54 - S 4 9 2 5 978.9 - -
25/10:00pm -24.3 -29.5 -31.3 52 - SW 7 11 4 6 979.2 979.4 -
25/09:30pm -22.8 -28.0 -31.9 43 - SW 7 13 4 7 979.4 - -
25/09:00pm -22.0 -28.7 -32.4 38 - WSW 15 20 8 11 979.4 - -
25/08:30pm -21.7 -31.8 -33.0 35 - SSE 33 43 18 23 979.2 - -
25/08:00pm -21.3 -29.4 -34.2 30 - S 22 41 12 22 979.6 - -
25/07:30pm -21.3 -29.0 -33.2 33 - S 20 33 11 18 979.6 - -
25/07:19pm -21.1 -28.2 -33.0 34 - SW 17 19 9 10 979.9 - -
25/07:00pm -21.2 -32.9 -33.4 33 - S 41 48 22 26 979.7 979.9 -
25/06:38pm -21.2 -33.2 -33.4 33 - S 43 50 23 27 979.8 - -
25/06:30pm -20.7 -30.9 -33.7 30 - SSW 33 43 18 23 979.9 - -
25/06:07pm -21.0 -29.4 -33.0 33 - SSW 24 33 13 18 980.2 - -
25/06:00pm -21.3 -32.6 -33.2 33 - S 39 52 21 28 980.2 - -
25/05:30pm -20.9 -30.9 -33.2 32 - S 32 46 17 25 980.4 - -
25/05:25pm -20.5 -30.5 -33.8 29 - SSW 32 46 17 25 980.2 - -
25/05:00pm -20.4 -27.9 -33.1 31 - S 19 28 10 15 980.4 - -
25/04:30pm -20.9 -29.7 -32.6 34 - SW 26 33 14 18 980.8 - -
25/04:00pm -20.6 -28.3 -33.2 31 - SW 20 30 11 16 980.7 980.9 -
25/03:30pm -20.7 -27.0 -32.7 33 - SW 13 20 7 11 981.4 - -
25/03:00pm -21.3 -27.3 -32.1 37 - SE 11 24 6 13 981.1 - -
25/02:30pm -21.0 -26.6 -32.4 35 - NW 9 20 5 11 981.5 - -
25/02:00pm -20.5 -26.1 -32.2 34 - NNW 9 13 5 7 981.5 - -
25/01:30pm -20.7 -25.9 -32.4 34 - ENE 7 17 4 9 982.4 - -
25/01:00pm -20.8 -26.4 -32.2 35 - E 9 17 5 9 982.3 982.5 -
25/12:30pm -20.4 -26.0 -32.1 34 - SE 9 15 5 8 982.5 - -
25/12:00pm -20.8 -27.5 -31.3 38 - E 15 24 8 13 982.6 - -
25/11:30am -20.1 -28.5 -32.2 33 - SE 24 37 13 20 982.7 - -
25/11:00am -20.2 -29.4 -32.2 33 - SE 28 41 15 22 983.0 - -
25/10:30am -19.4 -30.7 -32.9 29 - SE 39 57 21 31 983.0 - -
25/10:02am -18.4 -28.3 -32.0 29 - SSE 32 56 17 30 983.5 - -
25/10:00am -19.7 -29.6 -32.1 32 - SSE 32 46 17 25 983.3 983.5 -
25/09:30am -18.2 -29.5 -33.7 24 - SE 39 50 21 27 983.6 - -
25/09:00am -19.5 -32.1 -33.3 28 - SE 46 59 25 32 983.6 - -
25/08:30am -19.7 -29.7 -33.1 29 - SSE 32 43 17 23 984.4 - -
25/08:05am -20.2 -29.4 -33.2 30 - ESE 28 48 15 26 985.0 - -
25/08:00am -20.1 -28.5 -33.1 30 - E 24 35 13 19 985.2 - -
25/07:30am -20.4 -28.8 -33.4 30 - ESE 24 43 13 23 985.6 - -
25/07:00am -21.3 -29.4 -33.2 33 - NE 22 28 12 15 985.9 986.1 -
25/06:34am -19.7 -29.3 -33.8 27 - E 30 56 16 30 986.1 - -
25/06:30am -20.5 -28.9 -33.1 31 - ENE 24 33 13 18 986.0 - -
25/06:00am -21.0 -29.8 -33.3 32 - E 26 35 14 19 986.4 - -
25/05:30am -21.6 -30.8 -33.2 34 - E 28 39 15 21 986.6 - -
25/05:00am -21.3 -30.5 -33.9 31 - ESE 28 46 15 25 987.2 - -
25/04:30am -21.7 -33.0 -32.7 36 - E 39 50 21 27 987.6 - -
25/04:23am -21.7 -33.0 -33.3 34 - E 39 46 21 25 987.5 - -
25/04:14am -20.9 -33.5 -34.2 29 - ESE 46 67 25 36 987.3 - -
25/04:12am -20.9 -33.0 -34.2 29 - ESE 43 54 23 29 987.3 - -
25/04:03am -21.9 -32.0 -33.5 34 - ENE 33 52 18 28 987.4 - -
25/04:00am -22.1 -33.0 -33.6 34 - ENE 37 52 20 28 987.4 987.6 -
25/03:30am -21.7 -30.1 -33.6 33 - ENE 24 35 13 19 988.1 - -
25/03:00am -22.1 -32.3 -33.6 34 - E 33 44 18 24 988.2 - -
25/02:30am -21.6 -31.2 -34.1 31 - NE 30 39 16 21 988.6 - -
25/02:00am -22.7 -29.8 -33.3 37 - NE 17 26 9 14 989.5 - -
25/01:30am -22.3 -31.5 -33.5 35 - E 28 37 15 20 989.8 - -
25/01:12am -22.1 -31.3 -34.2 33 - E 28 46 15 25 990.1 - -
25/01:00am -22.6 -30.3 -34.4 33 - NE 20 28 11 15 990.1 990.3 -
25/12:30am -22.2 -31.8 -34.3 33 - E 30 43 16 23 990.8 - -
25/12:00am -23.0 -30.5 -33.3 38 - ENE 19 26 10 14 991.5 - -
 
Date/Time
EST
Temp
°C
App
Temp
°C
Dew
Point
Rel
Hum
%
Delta-T
°C
Wind Press
QNH
hPa
Press
MSL
hPa
Rain
since 9 am
mm
Dir
 
Spd
km/h
Gust
km/h
Spd
kts
Gust
kts
24/11:30pm -23.1 -31.6 -34.5 35 - E 24 33 13 18 991.9 - -
24/11:00pm -23.3 -32.1 -33.6 38 - E 26 39 14 21 992.1 - -
24/10:30pm -22.8 -31.3 -35.2 31 - ESE 24 35 13 19 992.6 - -
24/10:00pm -23.4 -31.1 -34.8 34 - ENE 20 28 11 15 993.0 993.2 -
24/09:30pm -23.2 -32.4 -35.2 32 - ESE 28 35 15 19 992.9 - -
24/09:00pm -23.3 -32.1 -35.3 32 - E 26 39 14 21 993.2 - -
24/08:30pm -23.2 -31.7 -35.2 32 - E 24 35 13 19 993.7 - -
24/08:00pm -23.8 -33.0 -35.2 34 - E 28 37 15 20 994.2 - -
24/07:30pm -23.8 -30.5 -35.2 34 - E 15 24 8 13 994.8 - -
24/07:00pm -23.6 -30.0 -35.9 31 - ESE 13 20 7 11 995.5 995.7 -
24/06:30pm -23.7 -32.9 -36.0 31 - ESE 28 37 15 20 995.9 - -
24/06:00pm -24.1 -33.3 -35.7 34 - E 28 37 15 20 996.2 - -
24/05:30pm -24.6 -34.6 -35.3 36 - E 32 41 17 22 996.8 - -
24/05:00pm -24.0 -34.6 -36.3 31 - ESE 35 44 19 24 996.8 - -
24/04:30pm -24.4 -34.4 -36.3 32 - ESE 32 41 17 22 997.5 - -
24/04:00pm -24.2 -34.8 -36.8 30 - ESE 35 50 19 27 997.8 998.0 -
24/03:51pm -24.3 -34.3 -36.5 31 - ESE 32 50 17 27 997.7 - -
24/03:30pm -25.0 -35.2 -36.0 35 - ESE 33 43 18 23 998.0 - -
24/03:00pm -24.6 -35.5 -36.8 31 - ESE 37 50 20 27 998.0 - -
24/02:30pm -25.4 -36.7 -36.3 35 - SE 39 46 21 25 998.2 - -
24/02:18pm -25.4 -36.7 -36.9 33 - SE 39 44 21 24 998.5 - -
24/02:00pm -25.0 -35.2 -37.5 30 - E 33 50 18 27 998.6 - -
24/01:38pm -25.8 -35.8 -36.4 36 - ESE 32 50 17 27 998.9 - -
24/01:30pm -25.6 -35.8 -36.8 34 - ESE 33 44 18 24 999.0 - -
24/01:13pm -25.8 -34.7 -36.7 35 - E 26 32 14 17 999.6 - -
24/01:00pm -26.2 -37.1 -37.6 33 - SE 37 46 20 25 999.8 1000.0 -
24/12:30pm -26.6 -37.2 -37.7 34 - SE 35 44 19 24 999.9 - -
24/12:00pm -26.1 -36.3 -37.8 33 - ESE 33 43 18 23 1000.3 - -
24/11:30am -26.8 -36.8 -38.4 33 - ESE 32 41 17 22 1001.0 - -
24/11:00am -27.0 -38.3 -38.9 32 - ESE 39 50 21 27 1001.2 - -
24/10:30am -27.1 -38.8 -39.0 32 - ESE 41 52 22 28 1001.3 - -
24/10:00am -27.1 -39.8 -39.3 31 - SE 46 57 25 31 1001.4 1001.6 -
24/09:30am -27.6 -38.6 -39.2 32 - SE 37 44 20 24 1001.9 - -
24/09:00am -27.5 -40.6 -39.7 30 - SE 48 57 26 31 1001.9 - -
24/08:34am -27.3 -38.6 -39.2 31 - ESE 39 48 21 26 1002.5 - -
24/08:32am -27.7 -35.4 -39.5 32 - E 20 24 11 13 1002.8 - -
24/08:30am -27.3 -38.6 -39.5 30 - SE 39 50 21 27 1002.9 - -
24/08:00am -27.4 -39.7 -39.6 30 - SE 44 54 24 29 1002.6 - -
24/07:30am -27.0 -41.2 -39.6 29 - SE 54 61 29 33 1002.0 - -
24/07:00am -26.3 -40.5 -39.6 28 - SE 54 61 29 33 1002.3 1002.5 -
24/06:30am -26.8 -39.5 -39.4 29 - SE 46 54 25 29 1002.5 - -
24/06:00am -27.6 -40.3 -39.5 31 - SE 46 59 25 32 1002.7 - -
24/05:30am -26.5 -39.6 -39.8 27 - SE 48 59 26 32 1002.9 - -
24/05:00am -27.2 -38.9 -40.1 28 - SE 41 48 22 26 1003.2 - -
24/04:30am -26.7 -38.4 -39.6 29 - SE 41 48 22 26 1003.0 - -
24/04:00am -26.7 -37.3 -38.7 31 - SE 35 44 19 24 1003.3 1003.5 -
24/03:30am -27.1 -38.8 -39.0 32 - SE 41 44 22 24 1003.6 - -
24/03:00am -28.6 -42.0 -40.0 33 - SE 50 57 27 31 1003.1 - -
24/02:30am -27.0 -39.1 -38.9 32 - SE 43 46 23 25 1003.2 - -
24/02:00am -27.3 -37.3 -38.6 33 - SSE 32 35 17 19 1003.8 - -
24/01:30am -28.5 -36.6 -38.3 39 - SSW 22 30 12 16 1004.3 - -
24/01:00am -28.4 -38.6 -38.2 39 - SSE 33 39 18 21 1004.1 1004.3 -
24/12:30am -28.7 -37.9 -38.5 38 - SSE 28 33 15 18 1004.4 - -
24/12:00am -28.3 -38.9 -38.1 39 - SSE 35 41 19 22 1004.4 - -
 
Date/Time
EST
Temp
°C
App
Temp
°C
Dew
Point
Rel
Hum
%
Delta-T
°C
Wind Press
QNH
hPa
Press
MSL
hPa
Rain
since 9 am
mm
Dir
 
Spd
km/h
Gust
km/h
Spd
kts
Gust
kts
23/11:30pm -27.3 -38.3 -38.9 32 - SE 37 44 20 24 1004.7 - -
23/11:00pm -28.5 -40.8 -39.1 36 - SE 44 50 24 27 1004.6 - -
23/10:30pm -28.8 -41.5 -39.6 35 - SE 46 52 25 28 1004.7 - -
23/10:00pm -27.7 -38.3 -39.2 33 - ESE 35 41 19 22 1005.2 1005.4 -
23/09:30pm -27.8 -38.8 -39.3 33 - ESE 37 44 20 24 1005.2 - -
23/09:00pm -27.4 -37.0 -39.6 30 - ESE 30 37 16 20 1005.3 - -
23/08:30pm -26.6 -37.2 -39.5 29 - SE 35 43 19 23 1005.2 - -
23/08:00pm -26.6 -36.2 -39.5 29 - SE 30 39 16 21 1005.1 - -
23/07:30pm -27.3 -35.0 -38.6 33 - SSE 20 26 11 14 1005.2 - -
23/07:00pm -28.6 -37.8 -38.7 37 - SSE 28 35 15 19 1005.3 1005.5 -

Other Formats:

Comma delimited format used in spreadsheet applications
http://www.bom.gov.au/fwo/IDT60803/IDT60803.89564.axf

JavaScript Object Notation format (JSON) in row-major order
http://www.bom.gov.au/fwo/IDT60803/IDT60803.89564.json